Time;durP1;ratioP1;P1;durP2;ratioP2;P2;SDS_P1;SDS_P2;PMS_P1;PMS_P2;Temp;Humidity;BMP_temperature;BMP_pressure;BME280_temperature;BME280_humidity;BME280_pressure;Samples;Min_cycle;Max_cycle;Signal;HPM_P1;HPM_P2
2021/08/05 00:02:18;;;;;;;9.88;4.88;;;13.10;93.00;;;;;;6248573;23;20075;-72
2021/08/05 00:04:43;;;;;;;8.85;4.55;;;13.10;93.00;;;;;;6248103;23;20012;-72
2021/08/05 00:07:14;;;;;;;7.25;4.47;;;13.10;93.10;;;;;;6249735;23;20034;-72
2021/08/05 00:09:43;;;;;;;9.27;4.57;;;13.00;93.20;;;;;;6249160;23;20004;-72
2021/08/05 00:12:10;;;;;;;7.60;4.05;;;13.00;93.10;;;;;;6248604;23;20373;-71
2021/08/05 00:14:37;;;;;;;9.75;4.60;;;13.00;93.30;;;;;;6220582;23;20443;-70
2021/08/05 00:17:03;;;;;;;7.57;4.80;;;13.00;92.90;;;;;;6222042;23;20000;-71
2021/08/05 00:19:29;;;;;;;7.93;4.53;;;13.00;92.90;;;;;;6247984;23;20000;-71
2021/08/05 00:21:55;;;;;;;6.15;3.78;;;13.00;92.80;;;;;;6223182;23;20004;-71
2021/08/05 00:24:20;;;;;;;10.05;5.72;;;13.10;92.50;;;;;;6248589;23;20035;-71
2021/08/05 00:26:46;;;;;;;9.57;4.70;;;13.10;92.60;;;;;;6249499;23;20075;-71
2021/08/05 00:29:12;;;;;;;10.05;5.07;;;13.10;92.40;;;;;;6248981;23;20308;-71
2021/08/05 00:31:38;;;;;;;9.07;4.80;;;13.20;92.70;;;;;;6246714;23;20011;-71
2021/08/05 00:34:06;;;;;;;9.02;4.78;;;13.20;92.70;;;;;;6247246;23;20004;-71
2021/08/05 00:36:31;;;;;;;9.40;4.70;;;13.10;92.70;;;;;;6248612;23;20005;-72
2021/08/05 00:38:57;;;;;;;9.63;4.90;;;13.10;92.70;;;;;;6248513;23;20031;-72
2021/08/05 00:41:23;;;;;;;7.88;4.68;;;13.10;92.80;;;;;;6246933;23;20262;-72
2021/08/05 00:43:48;;;;;;;6.82;4.47;;;13.00;92.90;;;;;;6248646;23;20379;-72
2021/08/05 00:46:14;;;;;;;7.45;4.88;;;13.00;92.80;;;;;;6247142;23;20062;-73
2021/08/05 00:48:40;;;;;;;7.20;4.22;;;12.90;92.80;;;;;;6248647;23;20439;-74
2021/08/05 00:51:05;;;;;;;8.57;4.65;;;13.00;92.60;;;;;;6248389;23;20038;-72
2021/08/05 00:53:31;;;;;;;8.18;4.70;;;12.90;92.90;;;;;;6245763;23;20608;-71
2021/08/05 00:55:57;;;;;;;7.03;4.03;;;12.90;92.90;;;;;;6220500;23;20765;-72
2021/08/05 00:58:22;;;;;;;8.90;5.05;;;12.90;92.50;;;;;;6248502;23;19996;-71
2021/08/05 01:00:51;;;;;;;10.25;5.13;;;12.90;92.90;;;;;;6246208;23;20505;-74
2021/08/05 01:03:25;;;;;;;10.27;4.88;;;12.90;92.90;;;;;;6246170;23;20126;-73
2021/08/05 01:06:04;;;;;;;8.48;4.03;;;12.80;92.90;;;;;;6246365;23;19997;-72
2021/08/05 01:08:31;;;;;;;7.88;4.57;;;12.90;92.50;;;;;;6248288;23;20090;-72
2021/08/05 01:11:27;;;;;;;8.35;4.40;;;12.90;92.70;;;;;;6248481;23;20091;-72
2021/08/05 01:14:02;;;;;;;8.25;3.75;;;12.90;92.70;;;;;;6247091;22;20004;-72
2021/08/05 01:16:32;;;;;;;6.13;3.60;;;12.90;92.70;;;;;;6217355;23;20004;-72
2021/08/05 01:19:34;;;;;;;12.75;4.70;;;12.90;92.70;;;;;;6247376;23;20326;-72
2021/08/05 01:22:10;;;;;;;7.05;3.85;;;12.90;92.70;;;;;;6174614;23;20089;-72
2021/08/05 01:24:41;;;;;;;6.90;3.90;;;12.90;92.50;;;;;;6247804;23;20004;-72
2021/08/05 01:27:06;;;;;;;6.53;3.78;;;12.90;92.50;;;;;;6245402;23;20043;-72
2021/08/05 01:29:35;;;;;;;6.78;3.55;;;12.90;92.60;;;;;;6245146;23;20266;-72
2021/08/05 01:32:06;;;;;;;6.50;3.60;;;13.00;92.50;;;;;;6246849;23;20062;-72
2021/08/05 01:34:33;;;;;;;5.57;3.47;;;13.00;92.50;;;;;;6244954;23;20000;-72
2021/08/05 01:36:59;;;;;;;6.03;4.00;;;13.00;92.80;;;;;;6246448;23;20023;-71
2021/08/05 01:39:26;;;;;;;6.88;4.13;;;13.00;92.70;;;;;;6245955;23;20362;-71
2021/08/05 01:41:53;;;;;;;6.93;3.53;;;13.00;92.80;;;;;;6219459;23;20046;-71
2021/08/05 01:44:19;;;;;;;6.13;3.55;;;13.00;92.70;;;;;;6246176;23;20016;-72
2021/08/05 01:46:45;;;;;;;5.78;3.53;;;12.90;92.80;;;;;;6247128;23;20243;-72
2021/08/05 01:49:12;;;;;;;6.90;3.05;;;12.90;92.80;;;;;;6248346;23;20000;-72
2021/08/05 01:51:40;;;;;;;6.10;3.42;;;12.90;92.70;;;;;;6248199;23;20004;-73
2021/08/05 01:54:06;;;;;;;6.88;3.67;;;12.90;92.70;;;;;;6247441;23;20042;-72
2021/08/05 01:56:31;;;;;;;7.53;3.33;;;12.90;92.50;;;;;;6248045;23;20261;-72
2021/08/05 01:58:59;;;;;;;7.00;3.17;;;12.90;92.70;;;;;;6247688;23;20004;-73
2021/08/05 02:01:25;;;;;;;5.78;3.50;;;12.90;92.70;;;;;;6246368;23;20000;-72
2021/08/05 02:04:12;;;;;;;8.48;4.05;;;12.90;92.60;;;;;;6248368;23;20004;-73
2021/08/05 02:07:21;;;;;;;8.45;3.10;;;12.90;92.60;;;;;;6247002;23;20079;-73
2021/08/05 02:09:52;;;;;;;7.20;3.88;;;12.90;92.60;;;;;;6248218;23;20008;-72
2021/08/05 02:12:18;;;;;;;6.55;3.42;;;12.90;92.80;;;;;;6248001;23;20010;-73
2021/08/05 02:14:45;;;;;;;5.68;3.30;;;12.90;92.60;;;;;;6247082;23;20000;-72
2021/08/05 02:17:13;;;;;;;7.95;3.28;;;12.90;92.70;;;;;;6221699;23;20263;-72
2021/08/05 02:19:39;;;;;;;6.43;3.92;;;12.80;92.70;;;;;;6248783;23;20000;-72
2021/08/05 02:22:05;;;;;;;7.50;3.17;;;12.80;92.60;;;;;;6248142;23;20004;-71
2021/08/05 02:24:32;;;;;;;9.30;3.40;;;12.90;92.40;;;;;;6248014;23;20000;-72
2021/08/05 02:26:59;;;;;;;6.13;3.70;;;12.90;92.50;;;;;;6248189;23;20012;-74
2021/08/05 02:29:27;;;;;;;6.60;3.83;;;12.90;92.60;;;;;;6219608;23;20008;-72
2021/08/05 02:31:54;;;;;;;7.15;3.70;;;12.90;92.50;;;;;;6247814;23;20327;-72
2021/08/05 02:34:21;;;;;;;6.65;3.10;;;12.90;92.50;;;;;;6247694;23;20004;-72
2021/08/05 02:36:47;;;;;;;6.75;3.63;;;12.90;92.50;;;;;;6248171;23;20031;-72
2021/08/05 02:39:13;;;;;;;8.45;3.58;;;13.00;92.50;;;;;;6247018;23;20026;-72
2021/08/05 02:41:39;;;;;;;7.22;3.95;;;13.00;92.80;;;;;;6245154;23;20004;-71
2021/08/05 02:44:06;;;;;;;5.90;3.30;;;12.90;92.80;;;;;;6247506;23;20023;-72
2021/08/05 02:46:34;;;;;;;5.47;3.15;;;12.90;92.70;;;;;;6245731;23;20011;-72
2021/08/05 02:49:00;;;;;;;7.60;3.88;;;13.00;92.30;;;;;;6221035;23;20028;-72
2021/08/05 02:51:26;;;;;;;6.18;3.90;;;12.90;92.70;;;;;;6247532;23;20035;-72
2021/08/05 02:53:56;;;;;;;6.90;3.45;;;12.90;92.90;;;;;;6248556;23;20004;-72
2021/08/05 02:56:23;;;;;;;6.45;4.00;;;12.90;93.00;;;;;;6247401;23;20027;-71
2021/08/05 02:58:49;;;;;;;7.20;4.40;;;12.90;92.90;;;;;;6247397;23;20000;-72
2021/08/05 03:01:15;;;;;;;8.38;3.58;;;12.90;92.90;;;;;;6246221;23;20000;-72
2021/08/05 03:03:41;;;;;;;6.88;3.50;;;12.90;92.80;;;;;;6247527;23;20243;-71
2021/08/05 03:06:08;;;;;;;6.35;3.50;;;12.90;93.00;;;;;;6245985;23;20113;-71
2021/08/05 03:08:39;;;;;;;6.57;3.90;;;12.90;92.90;;;;;;6245029;23;20273;-72
2021/08/05 03:11:05;;;;;;;6.82;4.00;;;12.90;93.10;;;;;;6246025;23;20015;-71
2021/08/05 03:13:34;;;;;;;5.40;3.05;;;12.80;93.10;;;;;;6246017;23;20424;-71
2021/08/05 03:16:00;;;;;;;7.80;3.85;;;12.80;92.70;;;;;;6219467;23;20370;-72
2021/08/05 03:18:26;;;;;;;7.70;3.35;;;12.90;92.80;;;;;;6247320;23;20003;-72
2021/08/05 03:20:51;;;;;;;7.18;3.50;;;12.80;93.20;;;;;;6247687;23;19996;-72
2021/08/05 03:23:17;;;;;;;8.52;4.20;;;12.70;93.20;;;;;;6247457;23;20004;-72
2021/08/05 03:25:43;;;;;;;6.93;3.58;;;12.70;93.10;;;;;;6247180;23;20011;-72
2021/08/05 03:28:14;;;;;;;6.55;3.95;;;12.70;92.90;;;;;;6247708;23;20011;-72
2021/08/05 03:30:40;;;;;;;7.57;3.78;;;12.70;93.10;;;;;;6245822;23;20010;-72
2021/08/05 03:33:08;;;;;;;5.88;3.70;;;12.70;93.20;;;;;;6247304;23;20039;-72
2021/08/05 03:35:34;;;;;;;6.13;4.03;;;12.70;93.20;;;;;;6219886;23;20074;-72
2021/08/05 03:38:00;;;;;;;7.78;4.00;;;12.70;93.00;;;;;;6247462;23;20012;-73
2021/08/05 03:40:25;;;;;;;6.43;3.67;;;12.70;93.00;;;;;;6246846;23;20388;-71
2021/08/05 03:42:51;;;;;;;6.70;3.72;;;12.70;92.80;;;;;;6246073;23;20007;-71
2021/08/05 03:45:17;;;;;;;6.43;3.35;;;12.80;93.00;;;;;;6243078;23;20019;-72
2021/08/05 03:47:42;;;;;;;5.32;3.35;;;12.70;93.30;;;;;;6247116;23;20074;-72
2021/08/05 03:50:08;;;;;;;6.65;4.22;;;12.80;92.70;;;;;;6246872;23;20000;-72
2021/08/05 03:52:36;;;;;;;6.95;4.35;;;12.80;92.80;;;;;;6246778;23;20000;-72
2021/08/05 03:55:04;;;;;;;7.18;3.83;;;12.80;92.70;;;;;;6247246;23;20000;-72
2021/08/05 03:57:30;;;;;;;10.38;4.55;;;12.90;92.80;;;;;;6247485;23;20079;-71
2021/08/05 03:59:55;;;;;;;6.55;3.83;;;12.90;93.20;;;;;;6244689;23;20000;-72
2021/08/05 04:02:21;;;;;;;7.32;4.47;;;12.90;93.00;;;;;;6246137;23;20010;-72
2021/08/05 04:04:47;;;;;;;7.18;4.10;;;12.80;93.30;;;;;;6219630;23;20008;-71
2021/08/05 04:07:12;;;;;;;6.35;3.95;;;12.80;93.00;;;;;;6247124;23;20356;-71
2021/08/05 04:09:38;;;;;;;6.38;3.67;;;12.80;92.90;;;;;;6245925;23;20015;-72
2021/08/05 04:12:04;;;;;;;7.20;3.80;;;12.80;93.20;;;;;;6245548;23;20012;-71
2021/08/05 04:14:30;;;;;;;5.93;3.65;;;12.80;93.30;;;;;;6244940;23;20358;-73
2021/08/05 04:16:56;;;;;;;7.57;3.97;;;12.80;93.10;;;;;;6245321;23;20003;-72
2021/08/05 04:19:26;;;;;;;6.53;4.10;;;12.80;93.00;;;;;;6245958;23;20350;-72
2021/08/05 04:21:52;;;;;;;7.25;4.75;;;12.80;92.90;;;;;;6246753;23;20004;-71
2021/08/05 04:24:17;;;;;;;7.38;4.28;;;12.80;93.10;;;;;;6246242;23;20004;-72
2021/08/05 04:26:43;;;;;;;8.48;4.25;;;12.90;92.60;;;;;;6246760;23;20032;-72
2021/08/05 04:29:09;;;;;;;6.43;3.90;;;12.90;93.20;;;;;;6246352;23;20414;-72
2021/08/05 04:31:34;;;;;;;8.20;4.28;;;12.90;92.90;;;;;;6245340;23;20427;-71
2021/08/05 04:34:00;;;;;;;6.18;3.90;;;12.90;93.10;;;;;;6246420;23;20004;-72
2021/08/05 04:36:27;;;;;;;7.28;3.92;;;12.90;92.80;;;;;;6247066;23;20358;-72
2021/08/05 04:38:53;;;;;;;6.55;4.07;;;13.00;92.90;;;;;;6248034;23;20274;-72
2021/08/05 04:41:18;;;;;;;6.05;4.10;;;13.10;93.10;;;;;;6247762;23;19996;-71
2021/08/05 04:43:44;;;;;;;6.07;3.53;;;13.10;93.10;;;;;;6247718;23;20012;-72
2021/08/05 04:46:09;;;;;;;6.50;3.47;;;13.10;93.00;;;;;;6246542;23;20087;-72
2021/08/05 04:48:42;;;;;;;9.57;3.92;;;13.10;93.10;;;;;;6249036;23;20307;-73
2021/08/05 04:51:08;;;;;;;7.15;4.40;;;13.10;92.90;;;;;;6246911;23;20004;-72
2021/08/05 04:53:34;;;;;;;7.05;4.07;;;13.10;93.20;;;;;;6248297;23;20130;-72
2021/08/05 04:55:59;;;;;;;6.75;4.10;;;13.10;93.40;;;;;;6249144;23;20095;-71
2021/08/05 04:58:25;;;;;;;8.93;4.03;;;13.10;93.20;;;;;;6248470;23;20004;-71
2021/08/05 05:00:51;;;;;;;8.13;3.90;;;13.10;93.40;;;;;;6246184;23;20079;-72
2021/08/05 05:03:16;;;;;;;7.05;4.22;;;13.10;93.00;;;;;;6247916;23;20008;-71
2021/08/05 05:05:42;;;;;;;6.88;3.97;;;13.20;93.40;;;;;;6247968;23;20673;-72
2021/08/05 05:08:20;;;;;;;8.10;3.72;;;13.20;93.90;;;;;;6249280;23;20004;-72
2021/08/05 05:10:47;;;;;;;7.05;3.60;;;13.20;94.20;;;;;;6248528;23;20000;-72
2021/08/05 05:13:13;;;;;;;9.35;3.78;;;13.20;94.60;;;;;;6219600;23;20597;-72
2021/08/05 05:15:39;;;;;;;6.18;3.58;;;13.20;94.80;;;;;;6246697;23;20004;-72
2021/08/05 05:18:06;;;;;;;8.90;4.15;;;13.20;94.90;;;;;;6222260;23;20004;-72
2021/08/05 05:20:32;;;;;;;5.80;3.17;;;13.30;95.50;;;;;;6250257;23;20231;-71
2021/08/05 05:22:58;;;;;;;6.13;3.30;;;13.30;95.50;;;;;;6250474;23;20066;-72
2021/08/05 05:25:24;;;;;;;7.38;3.50;;;13.40;95.80;;;;;;6250393;23;20004;-72
2021/08/05 05:27:50;;;;;;;5.80;3.13;;;13.50;96.60;;;;;;6249204;23;20096;-71
2021/08/05 05:30:15;;;;;;;6.57;3.78;;;13.60;96.70;;;;;;6222634;23;20377;-71
2021/08/05 05:32:43;;;;;;;6.50;3.45;;;13.80;96.90;;;;;;6250291;23;20000;-71
2021/08/05 05:35:10;;;;;;;6.97;3.38;;;14.00;96.70;;;;;;6250290;23;20004;-72
2021/08/05 05:37:36;;;;;;;7.53;3.50;;;14.20;97.50;;;;;;6250942;23;20048;-71
2021/08/05 05:40:04;;;;;;;6.28;3.40;;;14.30;98.00;;;;;;6248461;23;20000;-72
2021/08/05 05:42:30;;;;;;;6.63;3.08;;;14.40;98.00;;;;;;6249291;23;19996;-71
2021/08/05 05:44:57;;;;;;;6.45;3.47;;;14.60;98.00;;;;;;6247424;23;20016;-71
2021/08/05 05:47:23;;;;;;;7.05;3.50;;;14.70;98.00;;;;;;6246291;23;20437;-71
2021/08/05 05:49:49;;;;;;;7.05;3.40;;;14.80;98.00;;;;;;6246782;23;20042;-71
2021/08/05 05:52:15;;;;;;;6.05;3.00;;;14.60;98.00;;;;;;6219066;23;20011;-71
2021/08/05 05:54:41;;;;;;;5.80;2.78;;;14.60;98.00;;;;;;6245147;23;20050;-71
2021/08/05 05:57:07;;;;;;;7.38;3.10;;;14.60;98.00;;;;;;6250198;23;20079;-72
2021/08/05 05:59:33;;;;;;;6.22;3.00;;;14.60;98.00;;;;;;6245282;23;20028;-71
2021/08/05 06:01:58;;;;;;;5.95;3.17;;;14.50;98.00;;;;;;6246444;23;20302;-71
2021/08/05 06:04:24;;;;;;;6.38;3.05;;;14.50;98.00;;;;;;6219185;23;20062;-71
2021/08/05 06:06:50;;;;;;;6.15;3.30;;;14.40;98.00;;;;;;6245550;23;20357;-71
2021/08/05 06:09:15;;;;;;;5.82;2.67;;;14.30;98.00;;;;;;6245031;23;20012;-73
2021/08/05 06:11:41;;;;;;;5.55;2.58;;;14.20;98.00;;;;;;6245880;23;20008;-72
2021/08/05 06:14:07;;;;;;;5.97;2.88;;;14.20;98.00;;;;;;6245602;23;20284;-72
2021/08/05 06:16:36;;;;;;;5.80;3.20;;;14.30;98.00;;;;;;6244678;23;20000;-72
2021/08/05 06:19:02;;;;;;;6.25;3.08;;;14.50;98.00;;;;;;6245165;23;20000;-71
2021/08/05 06:21:28;;;;;;;4.35;2.50;;;14.60;98.00;;;;;;6245529;23;20079;-72
2021/08/05 06:23:53;;;;;;;5.47;2.95;;;14.70;98.00;;;;;;6248480;23;20078;-74
2021/08/05 06:26:23;;;;;;;7.10;3.55;;;14.90;98.00;;;;;;6249520;23;20010;-72
2021/08/05 06:28:49;;;;;;;5.97;2.85;;;15.20;98.00;;;;;;6249908;23;20074;-72
2021/08/05 06:31:16;;;;;;;7.55;3.22;;;15.40;98.00;;;;;;6246081;23;20095;-71
2021/08/05 06:33:41;;;;;;;8.70;4.00;;;15.60;98.00;;;;;;6250364;23;20309;-71
2021/08/05 06:36:07;;;;;;;6.05;3.25;;;15.60;98.00;;;;;;6249960;23;20024;-71
2021/08/05 06:38:33;;;;;;;9.55;4.07;;;15.30;98.00;;;;;;6249884;23;20361;-72
2021/08/05 06:40:59;;;;;;;6.63;3.40;;;15.50;98.00;;;;;;6249569;23;20024;-71
2021/08/05 06:43:24;;;;;;;6.65;3.80;;;15.70;98.00;;;;;;6249190;23;20004;-71
2021/08/05 06:45:50;;;;;;;6.47;3.65;;;15.90;98.00;;;;;;6248076;23;20063;-72
2021/08/05 06:48:22;;;;;;;6.07;3.42;;;16.30;98.00;;;;;;6249064;23;20007;-71
2021/08/05 06:50:48;;;;;;;6.38;3.55;;;16.50;98.00;;;;;;6249487;23;20027;-71
2021/08/05 06:53:13;;;;;;;6.85;3.03;;;16.70;97.30;;;;;;6247596;23;20358;-72
2021/08/05 06:55:39;;;;;;;5.15;2.90;;;17.00;96.80;;;;;;6249885;23;20342;-72
2021/08/05 06:58:05;;;;;;;4.70;2.75;;;17.50;96.40;;;;;;6248892;23;20035;-71
2021/08/05 07:00:31;;;;;;;5.57;2.88;;;18.10;95.20;;;;;;6247791;23;20000;-71
2021/08/05 07:02:56;;;;;;;5.45;2.70;;;18.40;91.90;;;;;;6248301;23;20028;-71
2021/08/05 07:05:23;;;;;;;5.80;2.70;;;18.40;92.20;;;;;;6249489;23;20308;-72
2021/08/05 07:07:50;;;;;;;4.65;2.35;;;18.10;91.90;;;;;;6249141;23;20045;-71
2021/08/05 07:10:19;;;;;;;5.97;2.75;;;18.00;92.80;;;;;;6248605;23;19996;-72
2021/08/05 07:12:44;;;;;;;4.82;2.55;;;18.00;92.80;;;;;;6248362;23;20004;-72
2021/08/05 07:15:10;;;;;;;5.53;3.20;;;17.80;91.60;;;;;;6248005;23;20019;-72
2021/08/05 07:17:40;;;;;;;5.63;2.75;;;17.50;93.20;;;;;;6223192;23;20028;-72
2021/08/05 07:20:06;;;;;;;6.13;2.70;;;17.40;93.10;;;;;;6249729;23;20251;-71
2021/08/05 07:22:33;;;;;;;7.45;2.80;;;17.40;93.40;;;;;;6245554;23;20071;-72
2021/08/05 07:24:58;;;;;;;5.88;2.90;;;17.40;94.10;;;;;;6249849;23;20000;-72
2021/08/05 07:27:24;;;;;;;7.25;3.40;;;17.60;94.40;;;;;;6250016;23;20011;-72
2021/08/05 07:29:50;;;;;;;5.68;3.00;;;17.60;93.80;;;;;;6248444;23;20011;-72
2021/08/05 07:32:15;;;;;;;5.22;2.80;;;17.70;94.30;;;;;;6249293;23;20011;-72
2021/08/05 07:34:41;;;;;;;5.88;2.72;;;17.70;93.70;;;;;;6249693;23;20008;-72
2021/08/05 07:37:07;;;;;;;5.95;2.78;;;17.90;93.60;;;;;;6249738;23;19996;-72
2021/08/05 07:39:35;;;;;;;4.95;2.78;;;18.10;92.50;;;;;;6249318;23;20058;-72
2021/08/05 07:42:01;;;;;;;6.30;3.35;;;18.10;92.50;;;;;;6249577;23;20239;-72
2021/08/05 07:44:26;;;;;;;4.88;2.60;;;17.90;93.30;;;;;;6248136;23;20038;-72
2021/08/05 07:46:52;;;;;;;5.75;3.25;;;18.00;92.40;;;;;;6249840;23;20004;-72
2021/08/05 07:49:17;;;;;;;6.05;2.67;;;18.60;92.00;;;;;;6249882;23;20126;-72
2021/08/05 07:51:43;;;;;;;5.22;2.53;;;19.90;87.90;;;;;;6249138;23;20011;-72
2021/08/05 07:54:09;;;;;;;4.32;2.40;;;21.00;84.90;;;;;;6249771;23;20087;-73
2021/08/05 07:56:35;;;;;;;5.63;1.77;;;21.10;83.60;;;;;;6249401;23;20000;-72
2021/08/05 07:59:01;;;;;;;4.45;2.15;;;21.70;82.90;;;;;;6249070;23;20008;-72
2021/08/05 08:01:26;;;;;;;4.32;2.20;;;22.80;79.80;;;;;;6247873;23;20110;-72
2021/08/05 08:03:52;;;;;;;3.33;1.77;;;22.40;79.70;;;;;;6249306;23;20051;-72
2021/08/05 08:06:18;;;;;;;3.70;1.55;;;22.20;79.80;;;;;;6249431;23;20003;-72
2021/08/05 08:08:44;;;;;;;4.45;1.80;;;22.10;81.50;;;;;;6248981;23;20000;-72
2021/08/05 08:11:10;;;;;;;3.97;1.83;;;22.20;79.80;;;;;;6249424;23;20019;-72
2021/08/05 08:13:35;;;;;;;6.10;1.75;;;21.80;80.60;;;;;;6249064;23;20091;-72
2021/08/05 08:16:01;;;;;;;3.67;1.83;;;21.60;81.10;;;;;;6247719;23;19996;-72
2021/08/05 08:18:27;;;;;;;4.30;2.10;;;21.70;81.10;;;;;;6248570;23;20004;-72
2021/08/05 08:20:56;;;;;;;5.05;1.73;;;22.10;80.60;;;;;;6249115;23;20000;-72
2021/08/05 08:23:23;;;;;;;4.70;2.10;;;21.70;80.60;;;;;;6249220;23;20027;-72
2021/08/05 08:25:48;;;;;;;4.30;2.15;;;21.00;82.60;;;;;;6249100;23;20004;-72
2021/08/05 08:28:20;;;;;;;3.78;2.03;;;21.10;82.10;;;;;;6249013;23;20008;-72
2021/08/05 08:30:46;;;;;;;5.43;1.90;;;21.10;82.20;;;;;;6247814;23;20004;-72
2021/08/05 08:33:11;;;;;;;3.90;1.73;;;21.00;81.90;;;;;;6249100;23;20000;-72
2021/08/05 08:35:37;;;;;;;4.57;2.10;;;21.30;82.40;;;;;;6249074;23;20071;-71
2021/08/05 08:38:03;;;;;;;4.07;1.90;;;22.10;80.40;;;;;;6249485;23;20301;-72
2021/08/05 08:40:29;;;;;;;3.65;1.65;;;22.50;79.70;;;;;;6248440;23;20000;-71
2021/08/05 08:42:55;;;;;;;3.85;1.70;;;22.90;77.70;;;;;;6249433;23;20004;-72
2021/08/05 08:45:20;;;;;;;4.07;1.55;;;23.10;77.80;;;;;;6247263;23;20020;-72
2021/08/05 08:47:52;;;;;;;2.83;1.45;;;23.60;75.10;;;;;;6249366;23;20079;-71
2021/08/05 08:50:19;;;;;;;4.03;1.67;;;24.00;75.70;;;;;;6248922;23;20000;-71
2021/08/05 08:52:46;;;;;;;3.78;1.73;;;23.50;75.70;;;;;;6248763;23;20010;-71
2021/08/05 08:55:13;;;;;;;3.20;1.40;;;23.50;76.50;;;;;;6252196;23;20005;-70
2021/08/05 08:57:39;;;;;;;3.65;1.60;;;23.80;74.30;;;;;;6252130;23;20000;-70
2021/08/05 09:00:07;;;;;;;2.95;1.50;;;24.10;73.00;;;;;;6224208;23;20039;-70
2021/08/05 09:02:33;;;;;;;3.00;1.30;;;23.40;74.60;;;;;;6252006;23;20126;-71
2021/08/05 09:04:59;;;;;;;3.08;1.30;;;23.50;75.30;;;;;;6251930;23;20035;-73
2021/08/05 09:07:25;;;;;;;3.03;1.42;;;23.60;73.30;;;;;;6251646;23;20011;-72
2021/08/05 09:09:51;;;;;;;2.22;1.13;;;23.40;74.40;;;;;;6251102;23;20000;-72
2021/08/05 09:12:20;;;;;;;3.40;1.50;;;23.10;74.40;;;;;;6251686;23;20269;-72
2021/08/05 09:14:52;;;;;;;3.78;1.77;;;23.00;75.60;;;;;;6251001;23;20110;-71
2021/08/05 09:17:30;;;;;;;3.38;1.50;;;22.90;75.30;;;;;;6251748;23;20005;-71
2021/08/05 09:19:58;;;;;;;3.05;1.48;;;22.90;75.40;;;;;;6252173;23;19996;-71
2021/08/05 09:22:44;;;;;;;3.10;1.50;;;22.80;77.20;;;;;;6252623;23;20000;-73
2021/08/05 09:25:24;;;;;;;5.47;1.58;;;22.50;75.10;;;;;;6252023;23;20038;-71
2021/08/05 09:27:52;;;;;;;3.70;1.77;;;21.90;76.80;;;;;;6251591;23;20011;-72
2021/08/05 09:30:48;;;;;;;3.67;1.75;;;21.80;78.60;;;;;;6250429;23;20000;-72
2021/08/05 09:33:17;;;;;;;3.53;1.50;;;21.50;79.40;;;;;;6226301;23;20035;-71
2021/08/05 09:35:45;;;;;;;4.43;1.83;;;21.60;79.10;;;;;;6252107;23;20266;-72
2021/08/05 09:38:30;;;;;;;3.88;1.70;;;21.90;79.40;;;;;;6251178;23;20020;-72
2021/08/05 09:41:05;;;;;;;4.88;1.45;;;21.70;77.80;;;;;;6252435;23;20007;-72
2021/08/05 09:43:31;;;;;;;3.50;1.60;;;22.00;79.50;;;;;;6252639;23;20008;-71
2021/08/05 09:45:57;;;;;;;4.72;1.55;;;22.20;77.80;;;;;;6250661;23;20028;-72
2021/08/05 09:48:43;;;;;;;4.82;1.70;;;22.20;78.80;;;;;;6225834;23;20018;-72
2021/08/05 09:51:17;;;;;;;3.10;1.20;;;22.20;77.80;;;;;;6252240;23;20004;-72
2021/08/05 09:54:05;;;;;;;3.20;1.40;;;22.30;76.30;;;;;;6252292;23;20008;-71
2021/08/05 09:56:37;;;;;;;2.60;1.23;;;22.20;76.00;;;;;;6252378;23;19996;-72
2021/08/05 09:59:21;;;;;;;4.70;1.42;;;22.50;74.90;;;;;;6252287;23;20000;-72
2021/08/05 10:02:07;;;;;;;;;;;22.50;73.70;;;;;;6252905;23;20000;-72
2021/08/05 10:04:34;;;;;;;4.38;1.25;;;22.80;73.00;;;;;;6251444;23;20228;-72
2021/08/05 10:07:05;;;;;;;3.20;1.20;;;23.10;73.70;;;;;;6250256;23;20324;-72
2021/08/05 10:09:32;;;;;;;3.15;1.35;;;24.50;70.30;;;;;;6224122;23;20004;-71
2021/08/05 10:12:17;;;;;;;4.03;1.20;;;25.30;68.80;;;;;;6250554;23;20398;-72
2021/08/05 10:14:43;;;;;;;2.30;1.17;;;26.10;67.80;;;;;;6222754;23;20382;-72
2021/08/05 10:17:10;;;;;;;3.22;1.20;;;26.10;65.80;;;;;;6250588;23;20001;-71
2021/08/05 10:19:41;;;;;;;3.78;1.38;;;25.60;68.10;;;;;;6250372;23;19996;-72
2021/08/05 10:22:09;;;;;;;3.53;1.58;;;24.70;69.50;;;;;;6250762;23;20054;-72
2021/08/05 10:24:43;;;;;;;3.28;1.60;;;23.50;72.10;;;;;;6250886;23;20071;-72
2021/08/05 10:27:11;;;;;;;2.88;1.25;;;23.00;73.50;;;;;;6250120;23;20024;-71
2021/08/05 10:29:39;;;;;;;2.95;1.20;;;23.90;71.20;;;;;;6249286;23;20027;-72
2021/08/05 10:32:06;;;;;;;2.63;1.30;;;25.10;68.70;;;;;;6250365;23;20019;-72
2021/08/05 10:34:37;;;;;;;2.17;1.00;;;25.10;67.40;;;;;;6223680;23;20433;-72
2021/08/05 10:37:05;;;;;;;2.15;1.10;;;25.60;66.70;;;;;;6250553;23;20000;-72
2021/08/05 10:39:31;;;;;;;2.13;1.00;;;25.80;66.70;;;;;;6250450;23;20000;-71
2021/08/05 10:42:01;;;;;;;2.70;1.00;;;25.90;64.90;;;;;;6250852;23;19997;-72
2021/08/05 10:44:27;;;;;;;5.15;1.10;;;26.20;65.80;;;;;;6248544;23;20016;-71
2021/08/05 10:46:56;;;;;;;1.85;1.00;;;25.90;66.30;;;;;;6250172;23;20008;-71
2021/08/05 10:49:22;;;;;;;3.45;1.13;;;25.00;67.20;;;;;;6250427;23;20075;-71
2021/08/05 10:51:49;;;;;;;2.08;1.00;;;25.40;67.80;;;;;;6250440;23;20004;-72
2021/08/05 10:54:47;;;;;;;1.60;0.88;;;25.60;67.60;;;;;;6249993;23;20011;-72
2021/08/05 10:57:14;;;;;;;2.92;1.17;;;26.00;64.70;;;;;;6250359;23;20004;-72
2021/08/05 10:59:59;;;;;;;2.15;0.95;;;26.10;63.30;;;;;;6248842;23;20027;-72
2021/08/05 11:02:51;;;;;;;1.98;0.95;;;25.40;67.80;;;;;;6250554;23;20024;-72
2021/08/05 11:05:23;;;;;;;3.08;1.27;;;24.70;69.10;;;;;;6249987;23;20000;-71
2021/08/05 11:07:54;;;;;;;2.13;1.00;;;24.80;69.80;;;;;;6250284;23;20000;-72
2021/08/05 11:10:24;;;;;;;2.58;0.85;;;25.70;67.30;;;;;;6250345;23;20389;-72
2021/08/05 11:13:09;;;;;;;2.00;0.93;;;25.70;67.00;;;;;;6250253;23;20054;-72
2021/08/05 11:15:38;;;;;;;2.95;1.20;;;26.20;66.80;;;;;;6248722;23;20008;-72
2021/08/05 11:18:09;;;;;;;1.60;0.80;;;26.70;64.80;;;;;;6250021;23;20007;-72
2021/08/05 11:20:40;;;;;;;1.33;0.60;;;26.50;65.80;;;;;;6249528;23;20265;-71
2021/08/05 11:23:06;;;;;;;1.40;0.75;;;27.10;64.00;;;;;;6250116;23;20000;-71
2021/08/05 11:25:52;;;;;;;1.65;0.82;;;27.30;65.10;;;;;;6250308;23;19996;-72
2021/08/05 11:28:27;;;;;;;1.85;0.80;;;26.90;65.10;;;;;;6229019;22;20436;-72
2021/08/05 11:30:54;;;;;;;1.92;0.90;;;27.00;65.30;;;;;;6221817;23;20000;-72
2021/08/05 11:36:10;;;;;;;;;;;27.60;64.10;;;;;;6250918;23;20012;-72
2021/08/05 11:38:54;;;;;;;2.70;0.82;;;27.20;64.20;;;;;;6249566;23;19903;-72
2021/08/05 11:41:42;;;;;;;1.85;0.80;;;25.60;65.80;;;;;;6249514;23;20068;-72
2021/08/05 11:44:21;;;;;;;2.95;0.75;;;24.80;69.20;;;;;;6249614;23;20032;-72
2021/08/05 11:47:07;;;;;;;3.00;1.00;;;24.10;69.40;;;;;;6250148;23;20309;-71
2021/08/05 11:49:41;;;;;;;2.05;0.98;;;24.30;71.30;;;;;;6249104;23;20011;-71
2021/08/05 11:52:17;;;;;;;2.25;0.98;;;24.60;69.60;;;;;;6249600;23;20000;-71
2021/08/05 11:55:05;;;;;;;2.35;1.10;;;24.70;68.50;;;;;;6249918;23;20008;-71
2021/08/05 11:57:47;;;;;;;1.80;0.88;;;25.50;69.40;;;;;;6249599;23;20067;-71
2021/08/05 12:00:16;;;;;;;1.92;1.05;;;26.30;66.60;;;;;;6247281;23;20000;-72
2021/08/05 12:02:42;;;;;;;2.05;0.90;;;26.30;64.80;;;;;;6249836;23;20003;-70
2021/08/05 12:05:09;;;;;;;1.58;0.85;;;25.40;66.90;;;;;;6249437;23;20000;-71
2021/08/05 12:07:37;;;;;;;1.80;0.82;;;24.10;69.50;;;;;;6249334;23;20011;-72
2021/08/05 12:10:11;;;;;;;1.77;0.80;;;23.10;73.50;;;;;;6248642;23;20389;-71
2021/08/05 12:12:49;;;;;;;1.80;0.90;;;23.10;73.60;;;;;;6220963;23;20364;-71
2021/08/05 12:15:25;;;;;;;2.13;0.90;;;23.20;72.80;;;;;;6247167;23;20035;-70
2021/08/05 12:17:56;;;;;;;1.38;0.90;;;23.10;72.90;;;;;;6249615;23;20066;-71
2021/08/05 12:20:29;;;;;;;1.98;1.08;;;23.00;74.00;;;;;;6249841;23;20362;-71
2021/08/05 12:23:00;;;;;;;1.88;1.00;;;23.40;72.00;;;;;;6247647;23;20298;-71
2021/08/05 12:25:41;;;;;;;1.98;0.80;;;24.30;71.20;;;;;;6249211;23;20027;-71
2021/08/05 12:28:13;;;;;;;2.47;1.10;;;25.00;69.40;;;;;;6222749;23;20326;-70
2021/08/05 12:30:47;;;;;;;2.55;1.10;;;25.30;68.50;;;;;;6248198;23;20008;-71
2021/08/05 12:33:25;;;;;;;2.22;1.00;;;24.90;69.30;;;;;;6249037;23;20034;-72
2021/08/05 12:36:21;;;;;;;2.13;0.85;;;24.60;70.60;;;;;;6249210;23;20004;-71
2021/08/05 12:39:05;;;;;;;3.67;0.90;;;24.80;69.10;;;;;;6247150;23;20004;-71
2021/08/05 12:41:53;;;;;;;2.40;0.90;;;24.00;71.10;;;;;;6249504;23;20000;-70
2021/08/05 12:44:22;;;;;;;2.08;0.90;;;23.50;71.80;;;;;;6247504;23;20038;-70
2021/08/05 12:46:54;;;;;;;1.73;0.90;;;23.10;73.20;;;;;;6222844;23;20038;-70
2021/08/05 12:49:28;;;;;;;2.35;0.95;;;22.40;76.10;;;;;;6249501;23;20027;-70
2021/08/05 12:51:58;;;;;;;3.83;1.05;;;22.20;77.80;;;;;;6249356;23;20004;-71
2021/08/05 12:54:24;;;;;;;2.00;1.00;;;22.50;77.50;;;;;;6249048;23;20103;-70
2021/08/05 12:56:58;;;;;;;2.20;0.85;;;22.70;76.20;;;;;;6249451;23;20024;-72
2021/08/05 12:59:48;;;;;;;2.40;0.90;;;22.60;76.80;;;;;;6247551;23;20000;-70
2021/08/05 13:02:16;;;;;;;1.92;0.88;;;22.20;77.90;;;;;;6249286;23;20001;-71